createdAt,value
2018-04-08T00:01:33.268Z,5.83
2018-04-08T00:03:37.377Z,5.43
2018-04-08T00:05:43.034Z,5.93
2018-04-08T00:07:48.103Z,5.70
2018-04-08T00:09:52.617Z,6.63
2018-04-08T00:11:56.410Z,6.30
2018-04-08T00:14:00.687Z,5.37
2018-04-08T00:16:04.050Z,5.60
2018-04-08T00:18:07.482Z,6.23
2018-04-08T00:20:12.202Z,6.13
2018-04-08T00:22:15.631Z,5.07
2018-04-08T00:24:18.971Z,5.43
2018-04-08T00:26:23.382Z,5.30
2018-04-08T00:28:26.980Z,5.57
2018-04-08T00:30:31.352Z,6.00
2018-04-08T00:32:35.701Z,5.83
2018-04-08T00:34:39.140Z,5.70
2018-04-08T00:36:43.282Z,6.07
2018-04-08T00:38:46.663Z,6.07
2018-04-08T00:40:50.013Z,5.00
2018-04-08T00:42:53.348Z,5.50
2018-04-08T00:44:57.297Z,5.73
2018-04-08T00:47:01.260Z,5.70
2018-04-08T00:49:05.427Z,5.67
2018-04-08T00:51:09.198Z,5.90
2018-04-08T00:53:12.626Z,5.03
2018-04-08T00:55:16.727Z,4.60
2018-04-08T00:57:20.935Z,4.70
2018-04-08T00:59:24.178Z,5.30
2018-04-08T01:01:28.103Z,4.83
2018-04-08T01:03:31.577Z,4.30
2018-04-08T01:05:34.711Z,5.00
2018-04-08T01:07:37.806Z,4.90
2018-04-08T01:09:40.891Z,5.10
2018-04-08T01:11:44.008Z,4.93
2018-04-08T01:13:47.910Z,4.30
2018-04-08T01:15:51.766Z,4.53
2018-04-08T01:17:54.854Z,4.40
2018-04-08T01:19:58.195Z,5.37
2018-04-08T01:22:01.511Z,4.60
2018-04-08T01:24:04.856Z,5.70
2018-04-08T01:26:08.193Z,5.37
2018-04-08T01:28:11.559Z,5.47
2018-04-08T01:30:14.879Z,5.17
2018-04-08T01:32:18.205Z,4.80
2018-04-08T01:34:22.307Z,5.57
2018-04-08T01:36:25.632Z,5.77
2018-04-08T01:38:29.775Z,5.47
2018-04-08T01:40:33.635Z,5.90
2018-04-08T01:42:36.980Z,4.70
2018-04-08T01:44:40.382Z,5.33
2018-04-08T01:46:43.703Z,5.00
2018-04-08T01:48:47.829Z,4.80
2018-04-08T01:50:51.151Z,4.63
2018-04-08T01:52:54.470Z,5.20
2018-04-08T01:54:57.796Z,5.47
2018-04-08T01:57:01.149Z,5.03
2018-04-08T01:59:04.511Z,5.27
2018-04-08T02:01:07.855Z,5.50
2018-04-08T02:03:11.936Z,4.80
2018-04-08T02:05:15.253Z,5.57
2018-04-08T02:07:18.617Z,5.60
2018-04-08T02:09:21.976Z,5.20
2018-04-08T02:11:26.070Z,5.57
2018-04-08T02:13:29.428Z,5.53
2018-04-08T02:15:32.753Z,5.67
2018-04-08T02:17:36.078Z,5.20
2018-04-08T02:19:39.392Z,5.13
2018-04-08T02:21:42.729Z,5.40
2018-04-08T02:23:46.059Z,5.07
2018-04-08T02:25:49.418Z,5.30
2018-04-08T02:27:52.747Z,5.30
2018-04-08T02:29:56.078Z,4.90
2018-04-08T02:31:59.426Z,4.73
2018-04-08T02:34:02.817Z,5.10
2018-04-08T02:36:06.183Z,4.90
2018-04-08T02:38:09.506Z,4.83
2018-04-08T02:40:12.843Z,5.30
2018-04-08T02:42:16.185Z,4.63
2018-04-08T02:44:19.497Z,5.10
2018-04-08T02:46:23.639Z,5.53
2018-04-08T02:48:26.978Z,4.60
2018-04-08T02:50:31.093Z,5.23
2018-04-08T02:52:34.434Z,4.93
2018-04-08T02:54:37.772Z,5.00
2018-04-08T02:56:41.917Z,5.27
2018-04-08T02:58:46.055Z,5.30
2018-04-08T03:00:49.361Z,5.10
2018-04-08T03:02:52.687Z,5.10
2018-04-08T03:04:56.074Z,5.23
2018-04-08T03:06:59.361Z,4.97
2018-04-08T03:09:03.548Z,5.30
2018-04-08T03:11:06.888Z,5.57
2018-04-08T03:13:10.208Z,5.40
2018-04-08T03:15:13.549Z,5.57
2018-04-08T03:17:16.864Z,4.93
2018-04-08T03:19:20.962Z,5.87
2018-04-08T03:21:25.061Z,4.40
2018-04-08T03:23:28.407Z,5.07
2018-04-08T03:25:31.727Z,5.20
2018-04-08T03:27:35.079Z,4.80
2018-04-08T03:29:38.387Z,5.87
2018-04-08T03:31:41.746Z,5.60
2018-04-08T03:33:45.096Z,5.10
2018-04-08T03:35:48.411Z,4.90
2018-04-08T03:37:51.719Z,5.00
2018-04-08T03:39:55.803Z,5.50
2018-04-08T03:41:59.182Z,4.90
2018-04-08T03:44:02.554Z,4.77
2018-04-08T03:46:05.883Z,4.80
2018-04-08T03:48:09.202Z,4.90
2018-04-08T03:50:12.525Z,4.93
2018-04-08T03:52:15.935Z,5.10
2018-04-08T03:54:19.316Z,5.20
2018-04-08T03:56:22.679Z,5.30
2018-04-08T03:58:26.933Z,5.43
2018-04-08T04:00:30.275Z,5.50
2018-04-08T04:02:33.594Z,5.60
2018-04-08T04:04:36.998Z,5.60
2018-04-08T04:06:40.326Z,5.30
2018-04-08T04:08:44.435Z,5.00
2018-04-08T04:10:47.839Z,4.80
2018-04-08T04:12:51.194Z,4.90
2018-04-08T04:14:54.710Z,4.63
2018-04-08T04:16:58.140Z,5.23
2018-04-08T04:19:14.340Z,4.60
2018-04-08T04:21:29.430Z,5.00
2018-04-08T04:23:44.723Z,5.50
2018-04-08T04:25:59.739Z,5.50
2018-04-08T04:28:03.080Z,5.20
2018-04-08T04:30:06.406Z,4.90
2018-04-08T04:32:09.743Z,6.10
2018-04-08T04:34:13.063Z,6.37
2018-04-08T04:36:17.216Z,4.73
2018-04-08T04:38:20.580Z,5.30
2018-04-08T04:40:24.650Z,5.67
2018-04-08T04:42:28.894Z,5.40
2018-04-08T04:44:32.778Z,4.30
2018-04-08T04:46:37.188Z,5.17
2018-04-08T04:48:41.406Z,5.67
2018-04-08T04:50:44.899Z,5.53
2018-04-08T04:52:48.240Z,6.00
2018-04-08T04:54:51.550Z,4.63
2018-04-08T04:56:54.896Z,5.20
2018-04-08T04:58:58.979Z,5.20
2018-04-08T05:01:02.292Z,5.33
2018-04-08T05:03:06.373Z,5.73
2018-04-08T05:05:09.678Z,5.37
2018-04-08T05:07:13.756Z,5.00
2018-04-08T05:09:17.092Z,5.80
2018-04-08T05:11:21.182Z,6.17
2018-04-08T05:13:24.490Z,6.20
2018-04-08T05:15:28.579Z,6.63
2018-04-08T05:17:31.892Z,6.80
2018-04-08T05:19:35.213Z,6.90
2018-04-08T05:21:38.578Z,5.93
2018-04-08T05:23:41.907Z,6.13
2018-04-08T05:25:45.218Z,5.40
2018-04-08T05:27:48.517Z,5.50
2018-04-08T05:29:51.832Z,5.77
2018-04-08T05:31:55.909Z,5.37
2018-04-08T05:33:59.252Z,4.73
2018-04-08T05:36:02.566Z,6.00
2018-04-08T05:38:05.884Z,5.20
2018-04-08T05:40:09.203Z,5.53
2018-04-08T05:42:13.286Z,5.33
2018-04-08T05:44:16.665Z,5.43
2018-04-08T05:46:19.989Z,6.37
2018-04-08T05:48:24.075Z,5.63
2018-04-08T05:50:27.390Z,6.97
2018-04-08T05:52:31.481Z,6.30
2018-04-08T05:54:34.819Z,6.23
2018-04-08T05:56:38.130Z,6.00
2018-04-08T05:58:41.465Z,6.40
2018-04-08T06:00:45.537Z,5.60
2018-04-08T06:02:48.848Z,5.90
2018-04-08T06:04:52.172Z,6.60
2018-04-08T06:06:55.526Z,5.90
2018-04-08T06:08:58.906Z,6.00
2018-04-08T06:11:02.298Z,6.67
2018-04-08T06:13:05.601Z,6.03
2018-04-08T06:15:08.922Z,6.80
2018-04-08T06:17:12.264Z,7.03
2018-04-08T06:19:15.585Z,6.80
2018-04-08T06:21:19.728Z,6.73
2018-04-08T06:23:23.059Z,7.90
2018-04-08T06:25:26.364Z,7.67
2018-04-08T06:27:29.689Z,7.80
2018-04-08T06:29:33.785Z,8.53
2018-04-08T06:31:37.911Z,8.60
2018-04-08T06:33:41.263Z,8.60
2018-04-08T06:35:44.582Z,8.00
2018-04-08T06:37:48.692Z,9.33
2018-04-08T06:39:52.803Z,8.33
2018-04-08T06:41:56.900Z,9.07
2018-04-08T06:44:01.028Z,8.40
2018-04-08T06:46:05.127Z,8.07
2018-04-08T06:48:09.234Z,11.03
2018-04-08T06:50:13.334Z,8.23
2018-04-08T06:52:16.650Z,8.20
2018-04-08T06:54:19.975Z,8.40
2018-04-08T06:56:23.310Z,8.53
2018-04-08T06:58:27.424Z,8.83
2018-04-08T07:00:31.531Z,9.40
2018-04-08T07:02:35.644Z,7.70
2018-04-08T07:04:38.997Z,8.70
2018-04-08T07:06:42.322Z,7.70
2018-04-08T07:08:46.437Z,8.00
2018-04-08T07:10:50.552Z,8.10
2018-04-08T07:12:54.672Z,7.77
2018-04-08T07:14:58.017Z,8.00
2018-04-08T07:17:01.353Z,8.00
2018-04-08T07:19:04.760Z,7.90
2018-04-08T07:21:08.092Z,8.60
2018-04-08T07:23:11.441Z,8.43
2018-04-08T07:25:14.793Z,8.93
2018-04-08T07:27:18.111Z,10.60
2018-04-08T07:29:21.739Z,8.93
2018-04-08T07:31:25.251Z,9.60
2018-04-08T07:33:28.633Z,9.60
2018-04-08T07:35:31.947Z,10.70
2018-04-08T07:37:35.323Z,10.33
2018-04-08T07:39:38.645Z,9.80
2018-04-08T07:41:44.782Z,10.43
2018-04-08T07:43:48.779Z,9.47
2018-04-08T07:45:52.144Z,10.60
2018-04-08T07:47:55.491Z,10.83
2018-04-08T07:49:59.592Z,11.67
2018-04-08T07:52:03.719Z,11.43
2018-04-08T07:54:07.058Z,11.77
2018-04-08T07:56:10.370Z,10.70
2018-04-08T07:58:13.698Z,10.20
2018-04-08T08:00:17.049Z,10.07
2018-04-08T08:02:21.306Z,9.90
2018-04-08T08:04:25.595Z,11.03
2018-04-08T08:06:29.900Z,11.37
2018-04-08T08:08:33.873Z,12.20
2018-04-08T08:10:37.355Z,12.30
2018-04-08T08:12:40.686Z,11.97
2018-04-08T08:14:44.030Z,12.47
2018-04-08T08:16:47.350Z,12.40
2018-04-08T08:18:51.357Z,13.20
2018-04-08T08:20:55.132Z,11.47
2018-04-08T08:22:58.500Z,11.40
2018-04-08T08:25:02.420Z,11.73
2018-04-08T08:27:05.848Z,12.30
2018-04-08T08:29:09.999Z,11.37
2018-04-08T08:31:14.165Z,11.83
2018-04-08T08:33:17.611Z,12.37
2018-04-08T08:35:21.699Z,11.90
2018-04-08T08:37:25.451Z,11.70
2018-04-08T08:39:28.796Z,11.33
2018-04-08T08:41:32.962Z,12.10
2018-04-08T08:43:36.337Z,12.07
2018-04-08T08:45:39.689Z,13.43
2018-04-08T08:47:43.823Z,11.70
2018-04-08T08:49:47.296Z,13.10
2018-04-08T08:51:51.417Z,13.17
2018-04-08T08:53:55.493Z,12.70
2018-04-08T08:55:59.302Z,12.93
2018-04-08T08:58:02.622Z,12.30
2018-04-08T09:00:05.993Z,12.20
2018-04-08T09:02:09.322Z,13.10
2018-04-08T09:04:12.635Z,12.23
2018-04-08T09:06:16.633Z,13.20
2018-04-08T09:08:19.956Z,12.47
2018-04-08T09:10:23.300Z,12.53
2018-04-08T09:12:27.450Z,14.10
2018-04-08T09:14:31.843Z,13.77
2018-04-08T09:16:35.186Z,12.83
2018-04-08T09:18:41.738Z,12.53
2018-04-08T09:23:27.283Z,12.23
2018-04-08T09:25:46.326Z,12.93
2018-04-08T09:27:50.410Z,12.87
2018-04-08T09:29:54.527Z,13.10
2018-04-08T09:31:58.664Z,13.47
2018-04-08T09:34:02.067Z,13.53
2018-04-08T09:36:05.421Z,13.57
2018-04-08T09:38:09.527Z,12.33
2018-04-08T09:40:13.663Z,12.47
2018-04-08T09:42:17.163Z,13.70
2018-04-08T09:44:21.258Z,11.93
2018-04-08T09:46:24.637Z,12.30
2018-04-08T09:48:28.741Z,12.00
2018-04-08T09:50:32.102Z,12.13
2018-04-08T09:52:36.931Z,12.30
2018-04-08T09:54:41.117Z,12.63
2018-04-08T09:56:44.514Z,11.77
2018-04-08T09:58:47.885Z,12.10
2018-04-08T10:01:06.169Z,12.00
2018-04-08T10:03:27.166Z,11.80
2018-04-08T10:05:31.417Z,10.63
2018-04-08T10:07:34.762Z,11.50
2018-04-08T10:09:38.141Z,10.80
2018-04-08T10:11:41.482Z,12.60
2018-04-08T10:13:45.633Z,12.67
2018-04-08T10:15:49.813Z,12.00
2018-04-08T10:17:53.166Z,10.23
2018-04-08T10:19:56.512Z,10.97
2018-04-08T10:22:01.482Z,11.93
2018-04-08T10:24:05.422Z,11.20
2018-04-08T10:26:18.437Z,13.43
2018-04-08T10:28:22.550Z,11.00
2018-04-08T10:30:27.871Z,11.47
2018-04-08T10:32:31.242Z,11.67
2018-04-08T10:34:36.059Z,11.30
2018-04-08T10:36:40.533Z,10.70
2018-04-08T10:38:44.732Z,11.97
2018-04-08T10:40:48.082Z,12.43
2018-04-08T10:42:51.447Z,11.80
2018-04-08T10:44:54.799Z,10.33
2018-04-08T10:46:58.985Z,11.30
2018-04-08T10:49:02.682Z,11.20
2018-04-08T10:51:07.005Z,11.50
2018-04-08T10:53:11.212Z,9.73
2018-04-08T10:55:14.874Z,10.37
2018-04-08T10:57:18.331Z,11.07
2018-04-08T10:59:22.006Z,9.00
2018-04-08T11:01:25.364Z,11.40
2018-04-08T11:03:28.740Z,10.47
2018-04-08T11:05:32.875Z,11.07
2018-04-08T11:07:36.344Z,10.67
2018-04-08T11:09:39.759Z,10.17
2018-04-08T11:11:43.201Z,11.80
2018-04-08T11:13:46.575Z,9.73
2018-04-08T11:15:50.409Z,10.20
2018-04-08T11:17:53.798Z,10.53
2018-04-08T11:19:57.117Z,10.30
2018-04-08T11:22:00.458Z,10.57
2018-04-08T11:24:03.822Z,11.10
2018-04-08T11:26:07.145Z,10.57
2018-04-08T11:28:10.534Z,11.40
2018-04-08T11:30:13.928Z,11.17
2018-04-08T11:32:17.318Z,11.53
2018-04-08T11:34:20.668Z,11.10
2018-04-08T11:36:25.534Z,12.30
2018-04-08T11:38:30.980Z,10.83
2018-04-08T11:40:38.999Z,11.97
2018-04-08T11:42:44.452Z,11.10
2018-04-08T11:44:48.570Z,12.30
2018-04-08T11:46:52.679Z,11.10
2018-04-08T11:48:56.046Z,11.20
2018-04-08T11:50:59.397Z,11.37
2018-04-08T11:53:03.568Z,12.73
2018-04-08T11:55:07.711Z,13.80
2018-04-08T11:57:11.054Z,13.90
2018-04-08T11:59:15.020Z,13.50
2018-04-08T12:01:18.363Z,12.97
2018-04-08T12:03:22.455Z,13.30
2018-04-08T12:05:25.970Z,14.63
2018-04-08T12:07:29.547Z,13.30
2018-04-08T12:09:33.679Z,15.47
2018-04-08T12:11:37.081Z,13.77
2018-04-08T12:13:41.277Z,13.00
2018-04-08T12:15:45.394Z,13.87
2018-04-08T12:17:49.481Z,12.57
2018-04-08T12:19:52.801Z,14.63
2018-04-08T12:21:56.119Z,13.30
2018-04-08T12:23:59.525Z,15.13
2018-04-08T12:26:02.948Z,17.07
2018-04-08T12:28:07.067Z,15.73
2018-04-08T12:30:11.203Z,15.00
2018-04-08T12:32:14.580Z,14.23
2018-04-08T12:34:17.989Z,15.40
2018-04-08T12:36:21.402Z,14.23
2018-04-08T12:38:24.790Z,13.43
2018-04-08T12:40:28.108Z,14.10
2018-04-08T12:42:31.481Z,15.43
2018-04-08T12:44:34.862Z,13.63
2018-04-08T12:46:38.962Z,13.43
2018-04-08T12:48:42.303Z,13.43
2018-04-08T12:50:46.458Z,13.33
2018-04-08T12:52:49.831Z,12.67
2018-04-08T12:54:53.226Z,11.20
2018-04-08T12:56:56.592Z,11.63
2018-04-08T12:58:59.923Z,12.53
2018-04-08T13:01:03.253Z,13.03
2018-04-08T13:03:06.672Z,8.70
2018-04-08T13:05:10.010Z,10.53
2018-04-08T13:07:13.351Z,9.97
2018-04-08T13:09:16.676Z,10.00
2018-04-08T13:11:21.176Z,9.50
2018-04-08T13:13:25.488Z,9.10
2018-04-08T13:15:29.596Z,10.27
2018-04-08T13:17:33.708Z,9.50
2018-04-08T13:19:38.836Z,9.40
2018-04-08T13:21:43.321Z,9.37
2018-04-08T13:23:47.924Z,8.90
2018-04-08T13:25:51.299Z,8.60
2018-04-08T13:27:54.693Z,8.53
2018-04-08T13:29:58.150Z,9.60
2018-04-08T13:32:01.579Z,8.27
2018-04-08T13:34:04.976Z,8.10
2018-04-08T13:36:08.574Z,8.07
2018-04-08T13:38:11.914Z,9.57
2018-04-08T13:40:15.929Z,8.77
2018-04-08T13:42:20.081Z,8.93
2018-04-08T13:44:23.408Z,9.57
2018-04-08T13:46:27.470Z,9.37
2018-04-08T13:48:30.806Z,8.73
2018-04-08T13:50:34.186Z,8.90
2018-04-08T13:52:37.559Z,8.43
2018-04-08T13:54:40.876Z,9.23
2018-04-08T13:56:44.214Z,9.10
2018-04-08T13:58:48.366Z,10.03
2018-04-08T14:00:51.732Z,10.13
2018-04-08T14:02:55.053Z,9.20
2018-04-08T14:04:58.392Z,8.97
2018-04-08T14:07:02.510Z,8.17
2018-04-08T14:09:06.647Z,9.27
2018-04-08T14:11:10.049Z,8.70
2018-04-08T14:13:13.428Z,9.60
2018-04-08T14:15:16.766Z,9.50
2018-04-08T14:17:20.153Z,9.10
2018-04-08T14:19:23.476Z,9.27
2018-04-08T14:21:26.849Z,10.47
2018-04-08T14:23:30.975Z,9.23
2018-04-08T14:25:35.058Z,9.40
2018-04-08T14:27:38.424Z,9.60
2018-04-08T14:29:41.773Z,8.73
2018-04-08T14:31:45.118Z,9.70
2018-04-08T14:33:48.500Z,8.23
2018-04-08T14:35:51.865Z,8.70
2018-04-08T14:37:57.467Z,9.63
2018-04-08T14:40:03.085Z,7.67
2018-04-08T14:42:08.010Z,9.27
2018-04-08T14:44:11.685Z,8.60
2018-04-08T14:46:15.002Z,9.43
2018-04-08T14:48:18.316Z,9.40
2018-04-08T14:50:21.712Z,9.57
2018-04-08T14:52:25.288Z,10.00
2018-04-08T14:54:28.657Z,9.40
2018-04-08T14:56:32.608Z,10.67
2018-04-08T14:58:37.729Z,9.77
2018-04-08T15:00:41.856Z,8.77
2018-04-08T15:02:45.237Z,10.10
2018-04-08T15:04:48.652Z,9.40
2018-04-08T15:06:52.219Z,10.50
2018-04-08T15:08:55.839Z,9.20
2018-04-08T15:10:59.228Z,8.67
2018-04-08T15:13:02.595Z,9.23
2018-04-08T15:15:05.999Z,10.03
2018-04-08T15:17:10.131Z,11.07
2018-04-08T15:19:14.435Z,10.10
2018-04-08T15:21:19.570Z,9.83
2018-04-08T15:23:23.684Z,9.47
2018-04-08T15:25:28.712Z,10.43
2018-04-08T15:27:33.315Z,11.20
2018-04-08T15:29:38.225Z,9.63
2018-04-08T15:31:41.643Z,11.60
2018-04-08T15:33:45.018Z,12.60
2018-04-08T15:35:48.395Z,11.60
2018-04-08T15:37:51.719Z,12.10
2018-04-08T15:39:55.042Z,13.20
2018-04-08T15:41:58.435Z,13.30
2018-04-08T15:44:01.768Z,13.10
2018-04-08T15:46:05.141Z,12.23
2018-04-08T15:48:08.477Z,13.77
2018-04-08T15:50:11.816Z,12.47
2018-04-08T15:52:15.214Z,13.60
2018-04-08T15:54:18.533Z,13.97
2018-04-08T15:56:21.897Z,13.20
2018-04-08T15:58:25.238Z,14.13
2018-04-08T16:00:29.232Z,13.47
2018-04-08T16:02:32.664Z,12.73
2018-04-08T16:04:36.038Z,12.00
2018-04-08T16:06:40.219Z,12.47
2018-04-08T16:08:43.571Z,12.70
2018-04-08T16:10:46.912Z,13.03
2018-04-08T16:12:51.147Z,12.47
2018-04-08T16:14:54.509Z,13.03
2018-04-08T16:16:57.843Z,13.67
2018-04-08T16:19:01.197Z,13.97
2018-04-08T16:21:05.510Z,14.80
2018-04-08T16:23:10.867Z,12.80
2018-04-08T16:25:14.988Z,13.53
2018-04-08T16:27:18.344Z,13.57
2018-04-08T16:29:21.666Z,13.20
2018-04-08T16:31:25.758Z,12.10
2018-04-08T16:33:30.557Z,12.53
2018-04-08T16:35:33.879Z,13.30
2018-04-08T16:37:37.195Z,13.90
2018-04-08T16:39:40.517Z,14.00
2018-04-08T16:41:43.854Z,13.03
2018-04-08T16:43:48.090Z,12.37
2018-04-08T16:45:51.477Z,12.80
2018-04-08T16:47:55.650Z,13.20
2018-04-08T16:49:59.064Z,12.53
2018-04-08T16:52:02.439Z,12.00
2018-04-08T16:54:05.803Z,11.57
2018-04-08T16:56:09.155Z,13.10
2018-04-08T16:58:13.254Z,12.33
2018-04-08T17:00:19.249Z,11.93
2018-04-08T17:02:22.890Z,13.97
2018-04-08T17:04:26.283Z,12.40
2018-04-08T17:06:30.459Z,13.33
2018-04-08T17:08:34.755Z,13.50
2018-04-08T17:10:38.116Z,12.80
2018-04-08T17:12:41.469Z,11.80
2018-04-08T17:14:44.831Z,12.80
2018-04-08T17:16:48.154Z,11.80
2018-04-08T17:18:51.499Z,12.47
2018-04-08T17:20:55.228Z,11.00
2018-04-08T17:22:59.420Z,11.90
2018-04-08T17:25:02.787Z,12.47
2018-04-08T17:27:06.899Z,12.43
2018-04-08T17:29:10.235Z,11.20
2018-04-08T17:31:13.582Z,12.00
2018-04-08T17:33:17.834Z,11.40
2018-04-08T17:35:21.235Z,11.03
2018-04-08T17:37:24.584Z,10.90
2018-04-08T17:39:27.932Z,10.17
2018-04-08T17:41:31.413Z,10.13
2018-04-08T17:43:34.799Z,11.47
2018-04-08T17:45:38.191Z,10.27
2018-04-08T17:47:41.519Z,10.40
2018-04-08T17:49:44.840Z,10.30
2018-04-08T17:51:49.000Z,11.63
2018-04-08T17:53:53.155Z,11.47
2018-04-08T17:55:57.344Z,11.77
2018-04-08T17:58:01.557Z,12.20
2018-04-08T18:00:05.086Z,9.87
2018-04-08T18:02:08.460Z,9.83
2018-04-08T18:04:12.042Z,8.27
2018-04-08T18:06:16.234Z,8.67
2018-04-08T18:08:19.574Z,8.23
2018-04-08T18:10:22.925Z,7.80
2018-04-08T18:12:26.297Z,8.00
2018-04-08T18:14:29.778Z,8.40
2018-04-08T18:16:33.187Z,12.33
2018-04-08T18:18:37.480Z,8.97
2018-04-08T18:20:40.802Z,8.10
2018-04-08T18:22:44.341Z,7.80
2018-04-08T18:24:49.219Z,6.97
2018-04-08T18:26:52.574Z,6.80
2018-04-08T18:28:55.945Z,6.97
2018-04-08T18:31:00.333Z,6.30
2018-04-08T18:33:03.674Z,6.00
2018-04-08T18:35:07.024Z,10.10
2018-04-08T18:37:10.422Z,11.57
2018-04-08T18:39:15.076Z,10.13
2018-04-08T18:41:20.726Z,9.43
2018-04-08T18:43:24.220Z,9.53
2018-04-08T18:45:27.757Z,9.30
2018-04-08T18:47:31.153Z,10.43
2018-04-08T18:49:34.484Z,10.13
2018-04-08T18:51:37.870Z,9.33
2018-04-08T18:53:41.236Z,9.07
2018-04-08T18:55:45.352Z,9.00
2018-04-08T18:57:48.693Z,8.73
2018-04-08T18:59:52.016Z,9.00
2018-04-08T19:01:56.122Z,9.37
2018-04-08T19:03:59.477Z,8.50
2018-04-08T19:06:02.861Z,8.30
2018-04-08T19:08:06.216Z,8.00
2018-04-08T19:10:10.323Z,8.70
2018-04-08T19:12:13.656Z,8.83
2018-04-08T19:14:18.304Z,9.90
2018-04-08T19:16:23.672Z,8.70
2018-04-08T19:18:27.804Z,10.47
2018-04-08T19:20:31.145Z,9.80
2018-04-08T19:22:34.465Z,10.67
2018-04-08T19:24:37.785Z,9.97
2018-04-08T19:26:41.864Z,9.87
2018-04-08T19:28:46.005Z,9.60
2018-04-08T19:30:50.164Z,9.43
2018-04-08T19:32:54.072Z,9.03
2018-04-08T19:34:57.512Z,7.63
2018-04-08T19:37:01.582Z,7.13
2018-04-08T19:39:04.962Z,6.30
2018-04-08T19:41:08.276Z,6.70
2018-04-08T19:43:12.391Z,7.50
2018-04-08T19:45:15.769Z,6.70
2018-04-08T19:47:19.894Z,6.13
2018-04-08T19:49:23.217Z,7.60
2018-04-08T19:51:26.555Z,6.70
2018-04-08T19:53:29.906Z,6.20
2018-04-08T19:55:33.203Z,7.67
2018-04-08T19:57:36.524Z,6.73
2018-04-08T19:59:39.836Z,6.70
2018-04-08T20:01:43.162Z,6.67
2018-04-08T20:03:46.476Z,6.03
2018-04-08T20:05:49.820Z,6.37
2018-04-08T20:07:53.898Z,6.60
2018-04-08T20:09:57.205Z,5.93
2018-04-08T20:12:00.533Z,6.23
2018-04-08T20:14:03.841Z,5.60
2018-04-08T20:16:07.158Z,6.37
2018-04-08T20:18:10.521Z,6.30
2018-04-08T20:20:13.806Z,7.00
2018-04-08T20:22:17.121Z,7.40
2018-04-08T20:24:21.273Z,6.30
2018-04-08T20:26:25.374Z,6.50
2018-04-08T20:28:29.457Z,6.67
2018-04-08T20:30:32.776Z,7.03
2018-04-08T20:32:36.871Z,7.43
2018-04-08T20:34:40.197Z,7.57
2018-04-08T20:36:43.546Z,8.20
2018-04-08T20:38:46.854Z,7.03
2018-04-08T20:40:50.202Z,7.80
2018-04-08T20:42:53.546Z,6.80
2018-04-08T20:44:57.624Z,7.40
2018-04-08T20:47:00.995Z,7.40
2018-04-08T20:49:04.371Z,7.93
2018-04-08T20:51:07.714Z,6.80
2018-04-08T20:53:11.031Z,6.80
2018-04-08T20:55:15.307Z,7.00
2018-04-08T20:57:18.625Z,6.70
2018-04-08T20:59:22.727Z,6.60
2018-04-08T21:01:26.093Z,7.90
2018-04-08T21:03:29.495Z,7.23
2018-04-08T21:05:32.797Z,6.40
2018-04-08T21:07:36.905Z,6.70
2018-04-08T21:09:41.007Z,7.20
2018-04-08T21:11:44.353Z,7.20
2018-04-08T21:13:47.726Z,7.67
2018-04-08T21:15:51.084Z,7.87
2018-04-08T21:17:55.195Z,7.40
2018-04-08T21:19:59.322Z,6.10
2018-04-08T21:22:03.429Z,6.20
2018-04-08T21:24:07.547Z,6.57
2018-04-08T21:26:10.876Z,7.00
2018-04-08T21:28:14.231Z,6.03
2018-04-08T21:30:17.558Z,6.30
2018-04-08T21:32:20.882Z,6.30
2018-04-08T21:34:24.990Z,5.67
2018-04-08T21:36:28.323Z,6.23
2018-04-08T21:38:31.645Z,6.17
2018-04-08T21:40:34.973Z,6.30
2018-04-08T21:42:39.063Z,6.60
2018-04-08T21:44:42.411Z,6.73
2018-04-08T21:46:45.788Z,6.33
2018-04-08T21:48:49.871Z,6.17
2018-04-08T21:50:53.966Z,6.60
2018-04-08T21:52:57.294Z,5.67
2018-04-08T21:55:01.425Z,6.77
2018-04-08T21:57:04.748Z,6.63
2018-04-08T21:59:08.063Z,7.00
2018-04-08T22:01:15.230Z,6.60
2018-04-08T22:03:18.569Z,7.37
2018-04-08T22:05:21.879Z,7.13
2018-04-08T22:07:26.021Z,7.50
2018-04-08T22:09:29.368Z,6.23
2018-04-08T22:11:32.693Z,5.73
2018-04-08T22:13:36.026Z,6.40
2018-04-08T22:15:40.124Z,6.37
2018-04-08T22:17:43.486Z,6.47
2018-04-08T22:19:46.857Z,6.10
2018-04-08T22:21:50.498Z,5.43
2018-04-08T22:23:53.810Z,6.30
2018-04-08T22:25:57.911Z,7.50
2018-04-08T22:28:01.991Z,6.00
2018-04-08T22:30:05.298Z,6.57
2018-04-08T22:32:09.408Z,6.10
2018-04-08T22:34:13.575Z,6.60
2018-04-08T22:36:16.900Z,6.67
2018-04-08T22:38:20.218Z,6.93
2018-04-08T22:40:24.290Z,6.57
2018-04-08T22:42:28.440Z,7.30
2018-04-08T22:44:31.967Z,7.10
2018-04-08T22:46:36.118Z,7.20
2018-04-08T22:48:40.242Z,6.37
2018-04-08T22:50:45.556Z,6.90
2018-04-08T22:52:48.954Z,6.70
2018-04-08T22:54:53.070Z,7.27
2018-04-08T22:56:56.782Z,6.77
2018-04-08T22:59:00.874Z,6.60
2018-04-08T23:01:06.249Z,6.77
2018-04-08T23:03:09.654Z,7.00
2018-04-08T23:05:12.994Z,7.00
2018-04-08T23:07:16.396Z,6.30
2018-04-08T23:09:20.506Z,6.73
2018-04-08T23:11:23.818Z,7.23
2018-04-08T23:13:27.428Z,6.70
2018-04-08T23:15:30.787Z,7.30
2018-04-08T23:17:34.301Z,7.03
2018-04-08T23:19:37.648Z,7.50
2018-04-08T23:21:40.990Z,6.70
2018-04-08T23:23:44.367Z,6.33
2018-04-08T23:25:48.835Z,7.00
2018-04-08T23:27:52.282Z,6.53
2018-04-08T23:29:56.376Z,6.77
2018-04-08T23:31:59.727Z,6.80
2018-04-08T23:34:03.095Z,6.53
2018-04-08T23:36:06.440Z,6.00
2018-04-08T23:38:10.160Z,6.83
2018-04-08T23:40:14.270Z,5.77
2018-04-08T23:42:17.642Z,6.03
2018-04-08T23:44:21.774Z,6.27
2018-04-08T23:46:25.857Z,7.20
2018-04-08T23:48:29.181Z,7.03
2018-04-08T23:50:32.501Z,5.90
2018-04-08T23:52:35.839Z,6.10
2018-04-08T23:54:40.033Z,6.87
2018-04-08T23:56:43.365Z,6.30
2018-04-08T23:58:46.698Z,7.50
